Eagle, Alaska
Current Conditions -  °F | °C
As of 3:53 PM on Saturday 20 Dec 2014 (Local Time) from PAEG Reporting Station
Clear Clear  
Wind Chill: -7°   Ceiling: Unl
Heat Index: -7°   Visibility: 10mi
Dew Point: -12°   Wind: 3mph
Humidity: 79%   Direction: 200°SSW
Pressure: 29.25"   Gusts: NA
Location:  64.78°N, 141.21°W
Report Text: PAEG 210053Z AUTO 20003KT 10SM CLR M22/M24 A2925 RMK AO2 SLP931 T12171244 TSNO
Loading
Personal Weather Stations






























Interactive Weather Map New forecast layout! Learn more

10-Day Weather Forecast

Advertisements
Track Severe Weather on mobile